sensor_id;sensor_type;location;lat;lon;timestamp;pressure;altitude;pressure_sealevel;temperature;humidity
60817;BME280;51921;51.518;-3.188;2022-12-29T00:02:18;98927.96;;;5.01;100.00
60817;BME280;51921;51.518;-3.188;2022-12-29T00:04:44;98919.92;;;4.63;100.00
60817;BME280;51921;51.518;-3.188;2022-12-29T00:07:11;98918.85;;;4.73;100.00
60817;BME280;51921;51.518;-3.188;2022-12-29T00:09:36;98928.50;;;4.26;100.00
60817;BME280;51921;51.518;-3.188;2022-12-29T00:12:02;98923.92;;;4.46;100.00
60817;BME280;51921;51.518;-3.188;2022-12-29T00:14:27;98927.42;;;4.37;100.00
60817;BME280;51921;51.518;-3.188;2022-12-29T00:16:52;98913.49;;;4.56;100.00
60817;BME280;51921;51.518;-3.188;2022-12-29T00:19:17;98911.84;;;4.03;100.00
60817;BME280;51921;51.518;-3.188;2022-12-29T00:21:43;98905.25;;;4.47;100.00
60817;BME280;51921;51.518;-3.188;2022-12-29T00:24:13;98900.82;;;4.47;100.00
60817;BME280;51921;51.518;-3.188;2022-12-29T00:26:34;98888.00;;;4.16;100.00
60817;BME280;51921;51.518;-3.188;2022-12-29T00:29:00;98888.96;;;4.60;100.00
60817;BME280;51921;51.518;-3.188;2022-12-29T00:31:26;98876.94;;;4.36;100.00
60817;BME280;51921;51.518;-3.188;2022-12-29T00:33:51;98874.77;;;4.06;100.00
60817;BME280;51921;51.518;-3.188;2022-12-29T00:36:19;98863.87;;;4.87;100.00
60817;BME280;51921;51.518;-3.188;2022-12-29T00:38:47;98854.79;;;4.68;100.00
60817;BME280;51921;51.518;-3.188;2022-12-29T00:41:07;98860.38;;;4.42;100.00
60817;BME280;51921;51.518;-3.188;2022-12-29T00:43:33;98849.13;;;5.26;100.00
60817;BME280;51921;51.518;-3.188;2022-12-29T00:45:58;98848.40;;;4.55;100.00
60817;BME280;51921;51.518;-3.188;2022-12-29T00:48:23;98847.33;;;4.71;100.00
60817;BME280;51921;51.518;-3.188;2022-12-29T00:50:49;98845.99;;;4.94;100.00
60817;BME280;51921;51.518;-3.188;2022-12-29T00:53:15;98847.65;;;4.46;100.00
60817;BME280;51921;51.518;-3.188;2022-12-29T00:55:40;98861.36;;;4.51;100.00
60817;BME280;51921;51.518;-3.188;2022-12-29T00:58:06;98839.40;;;4.43;100.00
60817;BME280;51921;51.518;-3.188;2022-12-29T01:00:31;98848.17;;;4.43;100.00
60817;BME280;51921;51.518;-3.188;2022-12-29T01:02:56;98841.62;;;4.91;100.00
60817;BME280;51921;51.518;-3.188;2022-12-29T01:05:21;98825.55;;;4.63;100.00
60817;BME280;51921;51.518;-3.188;2022-12-29T01:07:47;98831.96;;;4.81;100.00
60817;BME280;51921;51.518;-3.188;2022-12-29T01:10:13;98830.36;;;4.59;100.00
60817;BME280;51921;51.518;-3.188;2022-12-29T01:12:37;98829.30;;;5.24;100.00
60817;BME280;51921;51.518;-3.188;2022-12-29T01:15:04;98829.78;;;4.63;100.00
60817;BME280;51921;51.518;-3.188;2022-12-29T01:17:29;98825.31;;;4.65;100.00
60817;BME280;51921;51.518;-3.188;2022-12-29T01:19:54;98814.92;;;4.61;100.00
60817;BME280;51921;51.518;-3.188;2022-12-29T01:22:20;98827.36;;;4.13;100.00
60817;BME280;51921;51.518;-3.188;2022-12-29T01:24:45;98817.04;;;4.56;100.00
60817;BME280;51921;51.518;-3.188;2022-12-29T01:27:10;98817.20;;;4.31;100.00
60817;BME280;51921;51.518;-3.188;2022-12-29T01:29:36;98816.15;;;4.80;100.00
60817;BME280;51921;51.518;-3.188;2022-12-29T01:32:01;98811.43;;;4.88;100.00
60817;BME280;51921;51.518;-3.188;2022-12-29T01:34:27;98815.82;;;4.80;100.00
60817;BME280;51921;51.518;-3.188;2022-12-29T01:36:52;98808.81;;;4.42;100.00
60817;BME280;51921;51.518;-3.188;2022-12-29T01:39:18;98808.85;;;4.67;100.00
60817;BME280;51921;51.518;-3.188;2022-12-29T01:41:43;98818.21;;;4.46;100.00
60817;BME280;51921;51.518;-3.188;2022-12-29T01:46:38;98822.20;;;5.06;100.00
60817;BME280;51921;51.518;-3.188;2022-12-29T01:49:08;98826.47;;;4.97;100.00
60817;BME280;51921;51.518;-3.188;2022-12-29T01:51:26;98828.16;;;4.98;100.00
60817;BME280;51921;51.518;-3.188;2022-12-29T01:53:51;98838.59;;;4.91;100.00
60817;BME280;51921;51.518;-3.188;2022-12-29T01:56:17;98841.99;;;4.75;100.00
60817;BME280;51921;51.518;-3.188;2022-12-29T01:58:44;98850.41;;;5.14;100.00
60817;BME280;51921;51.518;-3.188;2022-12-29T02:01:07;98852.78;;;5.10;100.00
60817;BME280;51921;51.518;-3.188;2022-12-29T02:03:34;98860.34;;;4.83;100.00
60817;BME280;51921;51.518;-3.188;2022-12-29T02:06:03;98877.15;;;4.37;100.00
60817;BME280;51921;51.518;-3.188;2022-12-29T02:08:28;98877.09;;;4.45;100.00
60817;BME280;51921;51.518;-3.188;2022-12-29T02:10:49;98889.74;;;4.73;100.00
60817;BME280;51921;51.518;-3.188;2022-12-29T02:13:15;98887.35;;;4.50;100.00
60817;BME280;51921;51.518;-3.188;2022-12-29T02:15:48;98900.25;;;4.24;100.00
60817;BME280;51921;51.518;-3.188;2022-12-29T02:18:17;98891.16;;;4.40;100.00
60817;BME280;51921;51.518;-3.188;2022-12-29T02:23:08;98909.01;;;4.35;100.00
60817;BME280;51921;51.518;-3.188;2022-12-29T02:25:37;98931.63;;;3.85;100.00
60817;BME280;51921;51.518;-3.188;2022-12-29T02:27:59;98933.35;;;3.50;100.00
60817;BME280;51921;51.518;-3.188;2022-12-29T02:32:45;98953.05;;;4.01;100.00
60817;BME280;51921;51.518;-3.188;2022-12-29T02:35:09;98955.15;;;4.62;100.00
60817;BME280;51921;51.518;-3.188;2022-12-29T02:37:34;98964.64;;;4.15;100.00
60817;BME280;51921;51.518;-3.188;2022-12-29T02:40:00;98976.99;;;4.32;100.00
60817;BME280;51921;51.518;-3.188;2022-12-29T02:42:24;98973.13;;;4.03;100.00
60817;BME280;51921;51.518;-3.188;2022-12-29T02:44:52;98973.15;;;4.26;100.00
60817;BME280;51921;51.518;-3.188;2022-12-29T02:47:15;98982.64;;;3.97;100.00
60817;BME280;51921;51.518;-3.188;2022-12-29T02:49:38;98991.37;;;3.96;100.00
60817;BME280;51921;51.518;-3.188;2022-12-29T02:52:04;98998.08;;;3.69;100.00
60817;BME280;51921;51.518;-3.188;2022-12-29T02:54:27;99005.90;;;4.60;100.00
60817;BME280;51921;51.518;-3.188;2022-12-29T02:56:52;99014.48;;;3.92;100.00
60817;BME280;51921;51.518;-3.188;2022-12-29T02:59:18;99021.34;;;4.10;100.00
60817;BME280;51921;51.518;-3.188;2022-12-29T03:01:58;99032.27;;;3.42;100.00
60817;BME280;51921;51.518;-3.188;2022-12-29T03:04:20;99030.89;;;4.43;100.00
60817;BME280;51921;51.518;-3.188;2022-12-29T03:06:41;99037.22;;;4.50;100.00
60817;BME280;51921;51.518;-3.188;2022-12-29T03:09:05;99057.55;;;4.67;100.00
60817;BME280;51921;51.518;-3.188;2022-12-29T03:11:29;99067.04;;;4.44;100.00
60817;BME280;51921;51.518;-3.188;2022-12-29T03:13:54;99068.58;;;4.14;100.00
60817;BME280;51921;51.518;-3.188;2022-12-29T03:16:21;99083.73;;;4.03;100.00
60817;BME280;51921;51.518;-3.188;2022-12-29T03:18:50;99088.27;;;3.95;100.00
60817;BME280;51921;51.518;-3.188;2022-12-29T03:21:11;99088.29;;;4.10;100.00
60817;BME280;51921;51.518;-3.188;2022-12-29T03:23:33;99089.66;;;4.28;100.00
60817;BME280;51921;51.518;-3.188;2022-12-29T03:26:02;99093.32;;;4.75;100.00
60817;BME280;51921;51.518;-3.188;2022-12-29T03:28:27;99092.85;;;4.30;100.00
60817;BME280;51921;51.518;-3.188;2022-12-29T03:30:49;99103.15;;;3.93;100.00
60817;BME280;51921;51.518;-3.188;2022-12-29T03:33:17;99107.98;;;4.23;100.00
60817;BME280;51921;51.518;-3.188;2022-12-29T03:35:42;99114.73;;;4.57;100.00
60817;BME280;51921;51.518;-3.188;2022-12-29T03:38:09;99123.17;;;4.62;100.00
60817;BME280;51921;51.518;-3.188;2022-12-29T03:40:32;99136.87;;;4.30;100.00
60817;BME280;51921;51.518;-3.188;2022-12-29T03:42:57;99138.12;;;3.83;100.00
60817;BME280;51921;51.518;-3.188;2022-12-29T03:45:23;99141.35;;;4.22;100.00
60817;BME280;51921;51.518;-3.188;2022-12-29T03:47:48;99148.73;;;4.20;100.00
60817;BME280;51921;51.518;-3.188;2022-12-29T03:50:14;99158.36;;;4.33;100.00
60817;BME280;51921;51.518;-3.188;2022-12-29T03:52:39;99151.76;;;4.13;100.00
60817;BME280;51921;51.518;-3.188;2022-12-29T03:55:05;99158.91;;;4.20;100.00
60817;BME280;51921;51.518;-3.188;2022-12-29T03:57:30;99166.29;;;4.49;100.00
60817;BME280;51921;51.518;-3.188;2022-12-29T03:59:55;99171.75;;;4.24;100.00
60817;BME280;51921;51.518;-3.188;2022-12-29T04:02:21;99181.83;;;4.48;100.00
60817;BME280;51921;51.518;-3.188;2022-12-29T04:04:47;99185.20;;;3.98;100.00
60817;BME280;51921;51.518;-3.188;2022-12-29T04:07:12;99186.25;;;4.03;100.00
60817;BME280;51921;51.518;-3.188;2022-12-29T04:09:38;99188.05;;;4.48;100.00
60817;BME280;51921;51.518;-3.188;2022-12-29T04:12:03;99190.92;;;4.45;100.00
60817;BME280;51921;51.518;-3.188;2022-12-29T04:14:29;99192.01;;;3.94;100.00
60817;BME280;51921;51.518;-3.188;2022-12-29T04:16:54;99198.30;;;3.93;100.00
60817;BME280;51921;51.518;-3.188;2022-12-29T04:19:20;99201.67;;;4.23;100.00
60817;BME280;51921;51.518;-3.188;2022-12-29T04:21:46;99211.31;;;4.35;100.00
60817;BME280;51921;51.518;-3.188;2022-12-29T04:24:11;99213.36;;;4.19;100.00
60817;BME280;51921;51.518;-3.188;2022-12-29T04:26:37;99218.00;;;3.75;100.00
60817;BME280;51921;51.518;-3.188;2022-12-29T04:29:02;99224.56;;;4.01;100.00
60817;BME280;51921;51.518;-3.188;2022-12-29T04:31:28;99225.07;;;3.88;100.00
60817;BME280;51921;51.518;-3.188;2022-12-29T04:33:54;99232.69;;;5.21;100.00
60817;BME280;51921;51.518;-3.188;2022-12-29T04:36:19;99231.48;;;5.18;100.00
60817;BME280;51921;51.518;-3.188;2022-12-29T04:38:45;99239.45;;;4.16;100.00
60817;BME280;51921;51.518;-3.188;2022-12-29T04:41:10;99239.75;;;4.45;100.00
60817;BME280;51921;51.518;-3.188;2022-12-29T04:43:35;99241.83;;;4.79;100.00
60817;BME280;51921;51.518;-3.188;2022-12-29T04:46:01;99253.62;;;5.09;100.00
60817;BME280;51921;51.518;-3.188;2022-12-29T04:48:26;99250.52;;;5.13;100.00
60817;BME280;51921;51.518;-3.188;2022-12-29T04:50:52;99254.06;;;5.16;100.00
60817;BME280;51921;51.518;-3.188;2022-12-29T04:53:18;99258.24;;;4.30;100.00
60817;BME280;51921;51.518;-3.188;2022-12-29T04:55:44;99258.10;;;4.55;100.00
60817;BME280;51921;51.518;-3.188;2022-12-29T04:58:09;99265.87;;;3.90;100.00
60817;BME280;51921;51.518;-3.188;2022-12-29T05:00:34;99257.70;;;3.45;100.00
60817;BME280;51921;51.518;-3.188;2022-12-29T05:03:00;99271.52;;;3.36;100.00
60817;BME280;51921;51.518;-3.188;2022-12-29T05:05:25;99274.93;;;2.97;100.00
60817;BME280;51921;51.518;-3.188;2022-12-29T05:07:51;99273.65;;;3.69;100.00
60817;BME280;51921;51.518;-3.188;2022-12-29T05:10:17;99278.69;;;3.97;100.00
60817;BME280;51921;51.518;-3.188;2022-12-29T05:12:42;99281.64;;;3.81;100.00
60817;BME280;51921;51.518;-3.188;2022-12-29T05:15:10;99291.47;;;3.46;100.00
60817;BME280;51921;51.518;-3.188;2022-12-29T05:17:33;99293.42;;;3.19;100.00
60817;BME280;51921;51.518;-3.188;2022-12-29T05:19:58;99299.41;;;3.58;100.00
60817;BME280;51921;51.518;-3.188;2022-12-29T05:22:24;99305.65;;;3.47;100.00
60817;BME280;51921;51.518;-3.188;2022-12-29T05:24:49;99305.61;;;3.75;100.00
60817;BME280;51921;51.518;-3.188;2022-12-29T05:27:15;99316.01;;;3.73;100.00
60817;BME280;51921;51.518;-3.188;2022-12-29T05:29:40;99315.41;;;3.47;100.00
60817;BME280;51921;51.518;-3.188;2022-12-29T05:32:06;99326.03;;;3.56;100.00
60817;BME280;51921;51.518;-3.188;2022-12-29T05:34:31;99330.90;;;3.36;100.00
60817;BME280;51921;51.518;-3.188;2022-12-29T05:36:57;99337.56;;;3.86;100.00
60817;BME280;51921;51.518;-3.188;2022-12-29T05:39:23;99342.53;;;3.65;100.00
60817;BME280;51921;51.518;-3.188;2022-12-29T05:41:48;99347.05;;;3.54;100.00
60817;BME280;51921;51.518;-3.188;2022-12-29T05:44:14;99344.30;;;3.53;100.00
60817;BME280;51921;51.518;-3.188;2022-12-29T05:46:39;99347.47;;;4.40;100.00
60817;BME280;51921;51.518;-3.188;2022-12-29T05:49:06;99357.03;;;3.89;100.00
60817;BME280;51921;51.518;-3.188;2022-12-29T05:51:30;99366.68;;;4.03;100.00
60817;BME280;51921;51.518;-3.188;2022-12-29T05:53:56;99384.76;;;3.46;100.00
60817;BME280;51921;51.518;-3.188;2022-12-29T05:56:22;99379.88;;;3.70;100.00
60817;BME280;51921;51.518;-3.188;2022-12-29T05:58:48;99374.61;;;4.13;100.00
60817;BME280;51921;51.518;-3.188;2022-12-29T06:01:13;99383.41;;;3.63;100.00
60817;BME280;51921;51.518;-3.188;2022-12-29T06:03:38;99383.22;;;4.34;100.00
60817;BME280;51921;51.518;-3.188;2022-12-29T06:06:04;99384.59;;;4.27;100.00
60817;BME280;51921;51.518;-3.188;2022-12-29T06:08:29;99391.82;;;4.28;100.00
60817;BME280;51921;51.518;-3.188;2022-12-29T06:10:54;99393.51;;;4.23;100.00
60817;BME280;51921;51.518;-3.188;2022-12-29T06:13:20;99400.87;;;3.41;100.00
60817;BME280;51921;51.518;-3.188;2022-12-29T06:15:48;99411.21;;;5.12;100.00
60817;BME280;51921;51.518;-3.188;2022-12-29T06:18:11;99414.36;;;4.73;100.00
60817;BME280;51921;51.518;-3.188;2022-12-29T06:20:37;99420.04;;;3.64;100.00
60817;BME280;51921;51.518;-3.188;2022-12-29T06:23:02;99423.75;;;4.49;100.00
60817;BME280;51921;51.518;-3.188;2022-12-29T06:25:28;99429.65;;;4.57;100.00
60817;BME280;51921;51.518;-3.188;2022-12-29T06:27:53;99453.82;;;3.67;100.00
60817;BME280;51921;51.518;-3.188;2022-12-29T06:30:18;99461.56;;;3.88;100.00
60817;BME280;51921;51.518;-3.188;2022-12-29T06:32:44;99471.53;;;3.57;100.00
60817;BME280;51921;51.518;-3.188;2022-12-29T06:35:10;99474.73;;;4.14;100.00
60817;BME280;51921;51.518;-3.188;2022-12-29T06:37:35;99480.13;;;3.80;100.00
60817;BME280;51921;51.518;-3.188;2022-12-29T06:40:01;99498.84;;;3.81;100.00
60817;BME280;51921;51.518;-3.188;2022-12-29T06:42:26;99510.50;;;3.35;100.00
60817;BME280;51921;51.518;-3.188;2022-12-29T06:44:52;99516.30;;;3.15;100.00
60817;BME280;51921;51.518;-3.188;2022-12-29T06:47:17;99522.46;;;2.89;100.00
60817;BME280;51921;51.518;-3.188;2022-12-29T06:49:43;99525.17;;;2.89;100.00
60817;BME280;51921;51.518;-3.188;2022-12-29T06:52:08;99519.03;;;2.79;100.00
60817;BME280;51921;51.518;-3.188;2022-12-29T06:54:34;99517.95;;;3.45;100.00
60817;BME280;51921;51.518;-3.188;2022-12-29T06:57:00;99516.41;;;2.52;100.00
60817;BME280;51921;51.518;-3.188;2022-12-29T06:59:25;99511.80;;;3.53;100.00
60817;BME280;51921;51.518;-3.188;2022-12-29T07:01:51;99513.78;;;4.16;100.00
60817;BME280;51921;51.518;-3.188;2022-12-29T07:04:16;99512.53;;;3.80;100.00
60817;BME280;51921;51.518;-3.188;2022-12-29T07:06:41;99511.22;;;3.66;100.00
60817;BME280;51921;51.518;-3.188;2022-12-29T07:09:07;99515.34;;;4.29;100.00
60817;BME280;51921;51.518;-3.188;2022-12-29T07:11:32;99514.28;;;3.47;100.00
60817;BME280;51921;51.518;-3.188;2022-12-29T07:13:58;99510.43;;;4.77;100.00
60817;BME280;51921;51.518;-3.188;2022-12-29T07:16:24;99505.13;;;4.85;100.00
60817;BME280;51921;51.518;-3.188;2022-12-29T07:18:49;99508.56;;;5.73;100.00
60817;BME280;51921;51.518;-3.188;2022-12-29T07:21:15;99514.13;;;5.01;100.00
60817;BME280;51921;51.518;-3.188;2022-12-29T07:23:40;99516.36;;;5.35;100.00
60817;BME280;51921;51.518;-3.188;2022-12-29T07:26:07;99517.13;;;5.57;100.00
60817;BME280;51921;51.518;-3.188;2022-12-29T07:28:33;99526.93;;;4.61;100.00
60817;BME280;51921;51.518;-3.188;2022-12-29T07:30:57;99552.76;;;5.34;100.00
60817;BME280;51921;51.518;-3.188;2022-12-29T07:33:22;99564.94;;;4.71;100.00
60817;BME280;51921;51.518;-3.188;2022-12-29T07:35:47;99566.14;;;5.33;100.00
60817;BME280;51921;51.518;-3.188;2022-12-29T07:38:13;99567.41;;;4.02;100.00
60817;BME280;51921;51.518;-3.188;2022-12-29T07:40:38;99575.11;;;3.87;100.00
60817;BME280;51921;51.518;-3.188;2022-12-29T07:43:04;99578.04;;;3.51;100.00
60817;BME280;51921;51.518;-3.188;2022-12-29T07:45:30;99559.49;;;3.17;100.00
60817;BME280;51921;51.518;-3.188;2022-12-29T07:47:55;99565.70;;;3.06;100.00
60817;BME280;51921;51.518;-3.188;2022-12-29T07:50:21;99556.39;;;4.00;100.00
60817;BME280;51921;51.518;-3.188;2022-12-29T07:52:46;99559.49;;;3.52;100.00
60817;BME280;51921;51.518;-3.188;2022-12-29T07:55:12;99560.07;;;3.68;100.00
60817;BME280;51921;51.518;-3.188;2022-12-29T07:57:37;99566.96;;;3.22;100.00
60817;BME280;51921;51.518;-3.188;2022-12-29T08:00:04;99572.32;;;2.98;100.00
60817;BME280;51921;51.518;-3.188;2022-12-29T08:02:28;99576.16;;;2.96;100.00
60817;BME280;51921;51.518;-3.188;2022-12-29T08:04:54;99582.05;;;2.74;100.00
60817;BME280;51921;51.518;-3.188;2022-12-29T08:07:20;99582.13;;;2.52;100.00
60817;BME280;51921;51.518;-3.188;2022-12-29T08:09:45;99583.01;;;2.91;100.00
60817;BME280;51921;51.518;-3.188;2022-12-29T08:12:11;99579.54;;;3.04;100.00
60817;BME280;51921;51.518;-3.188;2022-12-29T08:14:36;99581.66;;;3.88;100.00
60817;BME280;51921;51.518;-3.188;2022-12-29T08:17:02;99588.83;;;3.61;100.00
60817;BME280;51921;51.518;-3.188;2022-12-29T08:19:27;99592.78;;;3.44;100.00
60817;BME280;51921;51.518;-3.188;2022-12-29T08:21:53;99602.03;;;3.90;100.00
60817;BME280;51921;51.518;-3.188;2022-12-29T08:24:18;99604.74;;;4.15;100.00
60817;BME280;51921;51.518;-3.188;2022-12-29T08:26:46;99610.01;;;3.98;100.00
60817;BME280;51921;51.518;-3.188;2022-12-29T08:29:09;99612.70;;;4.18;100.00
60817;BME280;51921;51.518;-3.188;2022-12-29T08:31:35;99615.25;;;4.70;100.00
60817;BME280;51921;51.518;-3.188;2022-12-29T08:34:00;99613.37;;;4.65;100.00
60817;BME280;51921;51.518;-3.188;2022-12-29T08:36:26;99616.38;;;4.39;100.00
60817;BME280;51921;51.518;-3.188;2022-12-29T08:38:51;99614.11;;;4.34;100.00
60817;BME280;51921;51.518;-3.188;2022-12-29T08:41:16;99616.72;;;3.71;100.00
60817;BME280;51921;51.518;-3.188;2022-12-29T08:43:45;99633.46;;;3.68;100.00
60817;BME280;51921;51.518;-3.188;2022-12-29T08:46:08;99632.78;;;3.59;100.00
60817;BME280;51921;51.518;-3.188;2022-12-29T08:48:33;99642.42;;;3.49;100.00
60817;BME280;51921;51.518;-3.188;2022-12-29T08:50:59;99627.92;;;3.46;100.00
60817;BME280;51921;51.518;-3.188;2022-12-29T08:53:24;99634.11;;;2.97;100.00
60817;BME280;51921;51.518;-3.188;2022-12-29T08:55:59;99626.20;;;2.71;100.00
60817;BME280;51921;51.518;-3.188;2022-12-29T08:58:15;99632.11;;;2.67;100.00
60817;BME280;51921;51.518;-3.188;2022-12-29T09:00:40;99636.88;;;2.78;100.00
60817;BME280;51921;51.518;-3.188;2022-12-29T09:03:05;99636.65;;;2.77;100.00
60817;BME280;51921;51.518;-3.188;2022-12-29T09:05:31;99640.40;;;2.79;100.00
60817;BME280;51921;51.518;-3.188;2022-12-29T09:07:56;99640.68;;;3.15;100.00
60817;BME280;51921;51.518;-3.188;2022-12-29T09:10:22;99654.17;;;2.91;100.00
60817;BME280;51921;51.518;-3.188;2022-12-29T09:12:48;99652.62;;;2.68;100.00
60817;BME280;51921;51.518;-3.188;2022-12-29T09:15:18;99651.25;;;2.66;100.00
60817;BME280;51921;51.518;-3.188;2022-12-29T09:17:43;99658.28;;;2.71;100.00
60817;BME280;51921;51.518;-3.188;2022-12-29T09:20:06;99660.33;;;3.47;100.00
60817;BME280;51921;51.518;-3.188;2022-12-29T09:22:29;99665.16;;;3.14;100.00
60817;BME280;51921;51.518;-3.188;2022-12-29T09:27:20;99672.68;;;3.57;100.00
60817;BME280;51921;51.518;-3.188;2022-12-29T09:29:45;99674.41;;;3.39;100.00
60817;BME280;51921;51.518;-3.188;2022-12-29T09:32:11;99680.13;;;3.07;100.00
60817;BME280;51921;51.518;-3.188;2022-12-29T09:34:36;99684.74;;;3.57;100.00
60817;BME280;51921;51.518;-3.188;2022-12-29T09:37:02;99685.66;;;3.93;100.00
60817;BME280;51921;51.518;-3.188;2022-12-29T09:39:27;99690.18;;;3.25;100.00
60817;BME280;51921;51.518;-3.188;2022-12-29T09:42:00;99690.32;;;3.38;100.00
60817;BME280;51921;51.518;-3.188;2022-12-29T09:44:23;99694.66;;;3.46;100.00
60817;BME280;51921;51.518;-3.188;2022-12-29T09:46:47;99704.21;;;3.56;100.00
60817;BME280;51921;51.518;-3.188;2022-12-29T09:49:18;99713.51;;;3.79;100.00
60817;BME280;51921;51.518;-3.188;2022-12-29T09:51:36;99710.79;;;4.38;100.00
60817;BME280;51921;51.518;-3.188;2022-12-29T09:54:20;99725.87;;;3.48;100.00
60817;BME280;51921;51.518;-3.188;2022-12-29T09:56:27;99754.28;;;3.08;100.00
60817;BME280;51921;51.518;-3.188;2022-12-29T09:58:55;99750.25;;;2.31;100.00
60817;BME280;51921;51.518;-3.188;2022-12-29T10:01:26;99752.56;;;2.32;100.00
60817;BME280;51921;51.518;-3.188;2022-12-29T10:03:47;99748.67;;;2.30;100.00
60817;BME280;51921;51.518;-3.188;2022-12-29T10:06:13;99747.66;;;2.54;100.00
60817;BME280;51921;51.518;-3.188;2022-12-29T10:08:37;99757.41;;;2.90;100.00
60817;BME280;51921;51.518;-3.188;2022-12-29T10:11:04;99754.71;;;2.65;100.00
60817;BME280;51921;51.518;-3.188;2022-12-29T10:13:34;99759.17;;;3.23;100.00
60817;BME280;51921;51.518;-3.188;2022-12-29T10:15:58;99756.41;;;2.84;100.00
60817;BME280;51921;51.518;-3.188;2022-12-29T10:18:29;99765.83;;;2.46;100.00
60817;BME280;51921;51.518;-3.188;2022-12-29T10:20:49;99757.43;;;3.00;100.00
60817;BME280;51921;51.518;-3.188;2022-12-29T10:23:20;99759.59;;;3.45;100.00
60817;BME280;51921;51.518;-3.188;2022-12-29T10:25:37;99755.65;;;3.81;100.00
60817;BME280;51921;51.518;-3.188;2022-12-29T10:28:01;99762.72;;;3.65;100.00
60817;BME280;51921;51.518;-3.188;2022-12-29T10:30:24;99770.98;;;3.85;100.00
60817;BME280;51921;51.518;-3.188;2022-12-29T10:32:51;99792.81;;;3.71;100.00
60817;BME280;51921;51.518;-3.188;2022-12-29T10:35:19;99817.73;;;4.43;100.00
60817;BME280;51921;51.518;-3.188;2022-12-29T10:37:45;99806.13;;;3.09;100.00
60817;BME280;51921;51.518;-3.188;2022-12-29T10:40:14;99804.02;;;2.34;100.00
60817;BME280;51921;51.518;-3.188;2022-12-29T10:42:36;99800.57;;;2.21;100.00
60817;BME280;51921;51.518;-3.188;2022-12-29T10:44:58;99792.49;;;2.34;100.00
60817;BME280;51921;51.518;-3.188;2022-12-29T10:47:25;99796.98;;;2.61;100.00
60817;BME280;51921;51.518;-3.188;2022-12-29T10:49:48;99788.32;;;2.39;100.00
60817;BME280;51921;51.518;-3.188;2022-12-29T10:52:15;99778.67;;;2.67;100.00
60817;BME280;51921;51.518;-3.188;2022-12-29T10:54:43;99787.74;;;3.44;100.00
60817;BME280;51921;51.518;-3.188;2022-12-29T10:57:08;99787.68;;;3.08;100.00
60817;BME280;51921;51.518;-3.188;2022-12-29T10:59:31;99814.14;;;3.26;100.00
60817;BME280;51921;51.518;-3.188;2022-12-29T11:02:00;99831.76;;;2.86;100.00
60817;BME280;51921;51.518;-3.188;2022-12-29T11:06:46;99829.71;;;2.48;100.00
60817;BME280;51921;51.518;-3.188;2022-12-29T11:09:15;99834.65;;;2.24;100.00
60817;BME280;51921;51.518;-3.188;2022-12-29T11:11:38;99827.36;;;2.61;100.00
60817;BME280;51921;51.518;-3.188;2022-12-29T11:14:11;99836.60;;;2.35;100.00
60817;BME280;51921;51.518;-3.188;2022-12-29T11:16:30;99839.99;;;2.60;100.00
60817;BME280;51921;51.518;-3.188;2022-12-29T11:18:54;99833.42;;;3.06;100.00
60817;BME280;51921;51.518;-3.188;2022-12-29T11:21:27;99830.06;;;3.12;100.00
60817;BME280;51921;51.518;-3.188;2022-12-29T11:23:55;99835.96;;;3.92;100.00
60817;BME280;51921;51.518;-3.188;2022-12-29T11:26:17;99818.26;;;3.53;100.00
60817;BME280;51921;51.518;-3.188;2022-12-29T11:28:37;99817.00;;;3.85;100.00
60817;BME280;51921;51.518;-3.188;2022-12-29T11:31:04;99827.37;;;3.54;100.00
60817;BME280;51921;51.518;-3.188;2022-12-29T11:33:28;99813.08;;;4.09;100.00
60817;BME280;51921;51.518;-3.188;2022-12-29T11:35:57;99803.21;;;3.55;100.00
60817;BME280;51921;51.518;-3.188;2022-12-29T11:38:22;99805.00;;;3.51;100.00
60817;BME280;51921;51.518;-3.188;2022-12-29T11:40:44;99819.51;;;3.33;100.00
60817;BME280;51921;51.518;-3.188;2022-12-29T11:43:18;99817.38;;;3.10;100.00
60817;BME280;51921;51.518;-3.188;2022-12-29T11:45:36;99827.80;;;3.99;100.00
60817;BME280;51921;51.518;-3.188;2022-12-29T11:48:05;99828.34;;;3.17;100.00
60817;BME280;51921;51.518;-3.188;2022-12-29T11:50:29;99835.22;;;3.15;100.00
60817;BME280;51921;51.518;-3.188;2022-12-29T11:52:57;99832.39;;;3.95;100.00
60817;BME280;51921;51.518;-3.188;2022-12-29T11:55:19;99830.48;;;4.47;100.00
60817;BME280;51921;51.518;-3.188;2022-12-29T11:57:44;99829.23;;;4.10;100.00
60817;BME280;51921;51.518;-3.188;2022-12-29T12:00:15;99827.79;;;3.62;100.00
60817;BME280;51921;51.518;-3.188;2022-12-29T12:02:40;99830.59;;;3.31;100.00
60817;BME280;51921;51.518;-3.188;2022-12-29T12:05:07;99829.92;;;3.25;100.00
60817;BME280;51921;51.518;-3.188;2022-12-29T12:07:34;99823.01;;;3.72;100.00
60817;BME280;51921;51.518;-3.188;2022-12-29T12:09:53;99829.03;;;3.92;100.00
60817;BME280;51921;51.518;-3.188;2022-12-29T12:12:22;99824.56;;;4.87;100.00
60817;BME280;51921;51.518;-3.188;2022-12-29T12:14:50;99809.37;;;4.77;100.00
60817;BME280;51921;51.518;-3.188;2022-12-29T12:17:14;99815.14;;;4.30;100.00
60817;BME280;51921;51.518;-3.188;2022-12-29T12:19:35;99818.28;;;4.02;100.00
60817;BME280;51921;51.518;-3.188;2022-12-29T12:22:03;99819.71;;;3.68;100.00
60817;BME280;51921;51.518;-3.188;2022-12-29T12:24:37;99820.02;;;3.91;100.00
60817;BME280;51921;51.518;-3.188;2022-12-29T12:26:56;99825.93;;;4.46;100.00
60817;BME280;51921;51.518;-3.188;2022-12-29T12:29:20;99835.57;;;4.32;100.00
60817;BME280;51921;51.518;-3.188;2022-12-29T12:31:45;99857.50;;;3.96;100.00
60817;BME280;51921;51.518;-3.188;2022-12-29T12:34:13;99864.18;;;3.48;100.00
60817;BME280;51921;51.518;-3.188;2022-12-29T12:36:46;99868.24;;;3.23;100.00
60817;BME280;51921;51.518;-3.188;2022-12-29T12:39:03;99866.22;;;2.70;100.00
60817;BME280;51921;51.518;-3.188;2022-12-29T12:41:33;99867.52;;;2.79;100.00
60817;BME280;51921;51.518;-3.188;2022-12-29T12:43:50;99869.66;;;2.97;100.00
60817;BME280;51921;51.518;-3.188;2022-12-29T12:46:37;99859.27;;;2.86;100.00
60817;BME280;51921;51.518;-3.188;2022-12-29T12:48:53;99861.20;;;2.62;100.00
60817;BME280;51921;51.518;-3.188;2022-12-29T12:51:12;99856.79;;;2.91;100.00
60817;BME280;51921;51.518;-3.188;2022-12-29T12:56:05;99847.35;;;3.13;100.00